Time;durP1;ratioP1;P1;durP2;ratioP2;P2;SDS_P1;SDS_P2;PMS_P1;PMS_P2;Temp;Humidity;BMP_temperature;BMP_pressure;BME280_temperature;BME280_humidity;BME280_pressure;Samples;Min_cycle;Max_cycle;Signal;HPM_P1;HPM_P2
2023/06/23 08:57:29;;;;;;;12.75;10.63;;;;;;;19.66;100.00;102133.78;5151429;27;20391;-73
2023/06/23 08:59:56;;;;;;;14.35;10.15;;;;;;;19.69;100.00;102140.69;5151207;27;20026;-67
2023/06/23 09:02:21;;;;;;;11.30;8.52;;;;;;;19.78;100.00;102143.84;5146484;27;20050;-72
2023/06/23 09:04:47;;;;;;;10.30;7.97;;;;;;;19.87;100.00;102149.72;5148149;27;20088;-71
2023/06/23 09:07:12;;;;;;;8.90;6.90;;;;;;;19.95;100.00;102152.84;5151676;27;20023;-74
2023/06/23 09:09:39;;;;;;;10.13;7.75;;;;;;;20.03;100.00;102146.06;5151531;27;20434;-72
2023/06/23 09:12:05;;;;;;;9.15;7.93;;;;;;;20.07;100.00;102143.66;5146043;27;20050;-73
2023/06/23 09:14:33;;;;;;;8.80;7.90;;;;;;;20.15;100.00;102156.91;5139767;27;20450;-76
2023/06/23 09:16:59;;;;;;;10.88;8.38;;;;;;;20.17;100.00;102163.00;5140179;27;20025;-72
2023/06/23 09:19:26;;;;;;;7.70;6.45;;;;;;;20.25;100.00;102162.53;5151519;27;20035;-72
2023/06/23 09:21:52;;;;;;;8.65;7.43;;;;;;;20.36;100.00;102161.53;5148489;27;20086;-73
2023/06/23 09:24:21;;;;;;;10.98;7.43;;;;;;;20.34;100.00;102169.22;5149989;27;20039;-72
2023/06/23 09:26:55;;;;;;;9.50;7.85;;;;;;;20.42;100.00;102161.59;5149641;27;20400;-75
2023/06/23 09:29:24;;;;;;;8.50;7.60;;;;;;;20.44;100.00;102170.41;5149179;27;20033;-73
2023/06/23 09:32:40;;;;;;;9.93;7.00;;;;;;;20.56;100.00;102164.75;5147279;27;20480;-76
2023/06/23 09:35:13;;;;;;;8.90;6.75;;;;;;;20.58;100.00;102179.06;5146206;27;20023;-74
2023/06/23 09:37:39;;;;;;;9.30;6.82;;;;;;;20.65;100.00;102183.31;5149712;27;20042;-73
2023/06/23 09:40:06;;;;;;;10.27;6.18;;;;;;;20.74;100.00;102172.63;5149520;27;20019;-73
2023/06/23 09:42:32;;;;;;;8.30;6.20;;;;;;;20.74;100.00;102196.59;5146941;27;20037;-72
2023/06/23 09:44:58;;;;;;;7.53;6.05;;;;;;;20.85;100.00;102190.09;5142141;27;20062;-73
2023/06/23 09:47:23;;;;;;;8.45;6.20;;;;;;;20.89;100.00;102191.22;5138372;27;20023;-73
2023/06/23 09:49:49;;;;;;;6.53;5.65;;;;;;;20.94;100.00;102193.16;5147319;27;20050;-73
2023/06/23 09:52:24;;;;;;;10.63;5.55;;;;;;;21.01;100.00;102194.59;5146700;27;20129;-73
2023/06/23 09:54:49;;;;;;;6.82;5.95;;;;;;;21.09;100.00;102186.97;5128480;28;20027;-73
2023/06/23 09:57:25;;;;;;;8.60;5.53;;;;;;;21.11;100.00;102187.56;5135743;27;20099;-72
2023/06/23 09:59:53;;;;;;;9.57;5.60;;;;;;;21.19;100.00;102185.09;5147530;27;20084;-75
2023/06/23 10:02:21;;;;;;;7.70;6.53;;;;;;;21.20;100.00;102181.28;5145292;27;20118;-74
2023/06/23 10:04:57;;;;;;;9.02;6.35;;;;;;;21.29;97.91;102184.38;5146395;27;20041;-73
2023/06/23 10:07:24;;;;;;;5.95;5.30;;;;;;;21.32;97.27;102178.31;5147783;27;20467;-73
2023/06/23 10:09:52;;;;;;;5.45;4.88;;;;;;;21.37;93.36;102175.59;5134504;27;20049;-73
2023/06/23 10:12:39;;;;;;;5.20;4.70;;;;;;;21.46;97.12;102184.19;5133051;27;20417;-74
2023/06/23 10:15:07;;;;;;;6.53;5.50;;;;;;;21.43;88.94;102179.22;5134601;27;20106;-75
2023/06/23 10:17:35;;;;;;;8.15;6.22;;;;;;;21.53;90.98;102172.97;5133231;27;20031;-74
2023/06/23 10:20:03;;;;;;;7.28;5.30;;;;;;;21.62;94.96;102185.16;5123845;27;20064;-73
2023/06/23 10:22:30;;;;;;;7.57;6.07;;;;;;;21.58;83.95;102179.31;5134616;27;20416;-75
2023/06/23 10:25:01;;;;;;;8.35;5.97;;;;;;;21.74;91.59;102183.00;5133532;27;20023;-77
2023/06/23 10:27:28;;;;;;;6.88;4.55;;;;;;;21.85;91.67;102183.06;5135330;27;20021;-70
2023/06/23 10:29:56;;;;;;;8.10;4.95;;;;;;;21.99;85.73;102184.19;5133500;27;20037;-71
2023/06/23 10:32:25;;;;;;;5.03;4.60;;;;;;;21.99;76.67;102183.38;5133495;27;20031;-69
2023/06/23 10:34:55;;;;;;;7.03;5.15;;;;;;;22.04;81.21;102180.63;5134812;27;20029;-68
2023/06/23 10:37:23;;;;;;;6.47;4.82;;;;;;;22.07;81.68;102178.19;5126839;27;20590;-71
2023/06/23 10:40:24;;;;;;;6.85;5.22;;;;;;;22.13;81.26;102188.13;5134122;27;20024;-77
2023/06/23 10:43:30;;;;;;;7.60;4.97;;;;;;;22.16;81.31;102185.91;5133173;27;20059;-77
2023/06/23 10:46:35;;;;;;;7.95;5.38;;;;;;;22.23;86.96;102186.50;5130457;27;20015;-78
2023/06/23 10:49:52;;;;;;;7.90;6.00;;;;;;;22.36;91.90;102197.03;5131308;27;20031;-75
2023/06/23 10:52:28;;;;;;;5.88;5.28;;;;;;;22.37;82.50;102192.34;5132211;27;20023;-77
2023/06/23 10:54:55;;;;;;;7.97;6.18;;;;;;;22.45;76.52;102192.66;5130504;27;20026;-74
2023/06/23 10:57:20;;;;;;;7.55;5.05;;;;;;;22.55;77.41;102194.56;5129944;27;20043;-74
2023/06/23 11:00:06;;;;;;;6.80;5.28;;;;;;;22.61;76.89;102192.66;5130089;27;20050;-72
2023/06/23 11:02:53;;;;;;;8.85;4.88;;;;;;;22.73;82.26;102195.16;5132872;27;20051;-72
2023/06/23 11:05:18;;;;;;;7.60;4.82;;;;;;;22.76;77.47;102198.19;5135325;27;20542;-72
2023/06/23 11:08:03;;;;;;;6.72;4.65;;;;;;;22.65;80.23;102191.84;5133049;27;20023;-72
2023/06/23 11:10:45;;;;;;;13.05;4.55;;;;;;;22.82;74.13;102202.59;5135773;27;20031;-72
2023/06/23 11:13:12;;;;;;;6.68;3.65;;;;;;;22.69;69.88;102211.44;5132308;27;20471;-72
2023/06/23 11:15:37;;;;;;;4.80;4.30;;;;;;;22.81;70.18;102200.13;5135571;27;20027;-72
2023/06/23 11:18:06;;;;;;;8.15;4.47;;;;;;;22.98;70.75;102205.41;5134926;27;20123;-72
2023/06/23 11:20:33;;;;;;;6.70;4.35;;;;;;;22.96;69.45;102208.44;5134680;27;20034;-72
2023/06/23 11:23:09;;;;;;;5.00;4.50;;;;;;;23.14;70.46;102207.06;5130862;27;20469;-72
2023/06/23 11:25:51;;;;;;;4.38;3.97;;;;;;;23.10;69.39;102213.41;5143793;27;20027;-72
2023/06/23 11:28:40;;;;;;;7.63;4.40;;;;;;;23.24;68.04;102208.16;5159629;27;20006;-75
2023/06/23 11:31:17;;;;;;;8.57;5.95;;;;;;;23.34;67.15;102208.97;5130702;27;20027;-74
2023/06/23 11:33:55;;;;;;;7.05;5.70;;;;;;;23.38;69.32;102212.00;5132171;27;20060;-71
2023/06/23 11:36:26;;;;;;;7.72;5.60;;;;;;;23.44;66.97;102215.59;5128891;27;20106;-75
2023/06/23 11:38:55;;;;;;;6.40;5.03;;;;;;;23.53;66.16;102209.19;5124336;27;20386;-71
2023/06/23 11:41:27;;;;;;;6.45;5.22;;;;;;;23.64;65.93;102211.94;5132374;27;20030;-71
2023/06/23 11:44:05;;;;;;;6.60;5.72;;;;;;;23.61;64.76;102206.97;5134470;27;20048;-73
2023/06/23 11:46:32;;;;;;;7.93;6.07;;;;;;;23.68;68.06;102205.56;5131747;27;20023;-72
2023/06/23 11:48:57;;;;;;;5.85;4.63;;;;;;;23.71;65.86;102207.75;5131594;27;20449;-75
2023/06/23 11:51:22;;;;;;;8.80;4.63;;;;;;;23.51;64.55;102216.94;5134454;27;20038;-73
2023/06/23 11:53:51;;;;;;;6.05;4.78;;;;;;;23.46;65.94;102207.84;5133707;27;20102;-73
2023/06/23 11:56:24;;;;;;;8.98;4.93;;;;;;;23.41;62.61;102210.63;5132210;27;20050;-80
2023/06/23 11:58:55;;;;;;;6.07;5.47;;;;;;;23.30;63.42;102212.56;5133471;27;20351;-74
2023/06/23 12:01:21;;;;;;;7.22;4.95;;;;;;;23.42;63.92;102207.56;5129081;27;20373;-72
2023/06/23 12:03:51;;;;;;;7.55;5.30;;;;;;;23.45;62.70;102212.53;5134174;27;20019;-75
2023/06/23 12:06:17;;;;;;;8.52;5.07;;;;;;;23.58;61.74;102207.53;5133970;27;20035;-72
2023/06/23 12:08:44;;;;;;;5.45;4.95;;;;;;;23.59;58.29;102200.91;5134256;27;20018;-72
2023/06/23 12:11:10;;;;;;;5.38;4.07;;;;;;;23.65;64.41;102200.59;5133988;27;20011;-76
2023/06/23 12:13:39;;;;;;;6.20;4.90;;;;;;;23.58;60.73;102213.88;5130803;27;20377;-76
2023/06/23 12:16:07;;;;;;;6.32;4.35;;;;;;;23.69;61.79;102209.19;5117435;27;20051;-74
2023/06/23 12:18:42;;;;;;;5.90;4.15;;;;;;;23.82;62.59;102204.97;5113392;28;20034;-76
2023/06/23 12:21:07;;;;;;;5.45;4.00;;;;;;;23.92;59.29;102207.72;5111590;28;20024;-75
2023/06/23 12:23:35;;;;;;;4.88;4.30;;;;;;;23.97;57.01;102210.47;5112121;28;20026;-74
2023/06/23 12:26:06;;;;;;;4.70;3.83;;;;;;;23.87;59.58;102205.81;5121909;27;20442;-75
2023/06/23 12:28:32;;;;;;;4.65;4.00;;;;;;;23.88;57.43;102203.88;5131244;27;20050;-75
2023/06/23 12:31:00;;;;;;;5.07;3.95;;;;;;;24.11;60.65;102207.94;5131895;27;20113;-75
2023/06/23 12:33:28;;;;;;;4.65;4.13;;;;;;;24.17;58.38;102209.56;5129618;27;20484;-77
2023/06/23 12:36:02;;;;;;;6.40;4.10;;;;;;;24.33;59.08;102209.47;5129903;27;20016;-77
2023/06/23 12:38:28;;;;;;;4.85;4.28;;;;;;;24.38;58.29;102212.19;5132600;27;20458;-73
2023/06/23 12:40:54;;;;;;;4.68;4.10;;;;;;;24.27;56.73;102210.63;5130728;27;20026;-77
2023/06/23 12:43:21;;;;;;;5.80;4.28;;;;;;;24.44;55.33;102213.81;5130086;27;20046;-74
2023/06/23 12:45:53;;;;;;;4.97;3.67;;;;;;;24.51;52.05;102213.50;5131835;27;20035;-76
2023/06/23 12:48:22;;;;;;;4.00;3.60;;;;;;;24.55;52.98;102209.88;5132500;27;20064;-77
2023/06/23 12:50:54;;;;;;;5.50;3.70;;;;;;;24.65;53.58;102202.66;5132481;27;20038;-75
2023/06/23 12:53:19;;;;;;;3.83;3.40;;;;;;;24.80;53.68;102212.78;5131948;27;20114;-73
2023/06/23 12:55:45;;;;;;;4.63;3.80;;;;;;;24.95;53.59;102199.63;5129221;27;20143;-74
2023/06/23 12:58:10;;;;;;;6.43;3.63;;;;;;;25.13;53.27;102209.16;5133391;27;20042;-73
2023/06/23 13:00:36;;;;;;;5.10;3.70;;;;;;;25.10;51.67;102208.94;5129966;28;20033;-72
2023/06/23 13:03:03;;;;;;;6.80;4.10;;;;;;;25.01;50.50;102203.19;5130370;27;20031;-74
2023/06/23 13:05:30;;;;;;;5.68;4.00;;;;;;;25.10;52.32;102206.16;5131214;27;20026;-73
2023/06/23 13:08:10;;;;;;;4.82;3.72;;;;;;;25.23;51.98;102199.13;5131368;27;20625;-79
2023/06/23 13:10:37;;;;;;;6.63;4.22;;;;;;;25.29;52.14;102195.19;5130150;27;20377;-74
2023/06/23 13:13:03;;;;;;;6.82;3.65;;;;;;;25.37;52.44;102202.06;5131905;27;20026;-74
2023/06/23 13:15:31;;;;;;;4.05;3.50;;;;;;;25.38;51.72;102198.16;5131983;28;20023;-73
2023/06/23 13:17:58;;;;;;;5.40;3.92;;;;;;;25.35;50.24;102198.75;5132241;27;20071;-74
2023/06/23 13:20:23;;;;;;;5.93;3.60;;;;;;;25.44;48.64;102195.06;5124896;27;20019;-73
2023/06/23 13:22:49;;;;;;;3.60;3.15;;;;;;;25.48;48.21;102192.50;5131470;27;20056;-73
2023/06/23 13:25:14;;;;;;;4.03;3.33;;;;;;;25.55;47.40;102195.75;5131259;27;20051;-74
2023/06/23 13:27:40;;;;;;;4.30;3.33;;;;;;;25.61;49.30;102189.03;5131478;27;20027;-72
2023/06/23 13:30:06;;;;;;;3.42;3.13;;;;;;;25.72;47.83;102186.16;5133093;27;20111;-73
2023/06/23 13:32:32;;;;;;;3.88;3.03;;;;;;;25.77;49.29;102186.06;5132262;28;20062;-73
2023/06/23 13:35:26;;;;;;;3.40;3.10;;;;;;;25.85;49.34;102187.34;5131949;28;20361;-75
2023/06/23 13:37:57;;;;;;;5.85;3.45;;;;;;;25.89;46.48;102191.19;5138721;27;20443;-74
2023/06/23 13:40:23;;;;;;;3.72;2.80;;;;;;;25.98;49.22;102176.41;5130432;27;20046;-73
2023/06/23 13:42:48;;;;;;;4.03;3.60;;;;;;;26.08;48.07;102189.31;5130528;27;20477;-73
2023/06/23 13:45:28;;;;;;;3.55;3.25;;;;;;;26.07;48.21;102184.88;5135607;27;20018;-75
2023/06/23 13:47:56;;;;;;;3.50;3.20;;;;;;;26.18;47.48;102182.81;5135508;27;20030;-75
2023/06/23 13:50:42;;;;;;;4.20;3.80;;;;;;;26.17;48.85;102181.16;5135468;27;20054;-75
2023/06/23 13:53:11;;;;;;;6.53;3.28;;;;;;;25.89;48.73;102178.19;5133661;27;21117;-77
2023/06/23 13:55:37;;;;;;;5.18;3.38;;;;;;;25.89;49.02;102183.72;5135201;27;20106;-74
2023/06/23 13:58:21;;;;;;;4.78;3.15;;;;;;;26.00;49.69;102173.34;5135445;27;20041;-76
2023/06/23 14:00:57;;;;;;;6.47;3.55;;;;;;;25.96;47.83;102167.53;5132330;27;20047;-75
2023/06/23 14:03:30;;;;;;;4.72;3.42;;;;;;;26.08;48.21;102177.41;5135339;27;20022;-75
2023/06/23 14:13:30;;;;;;;4.25;3.70;;;;;;;26.52;47.79;102170.63;5064217;27;20077;-75
2023/06/23 14:16:22;;;;;;;7.22;3.60;;;;;;;26.64;47.84;102172.97;5103199;27;20101;-76
2023/06/23 14:25:38;;;;;;;4.57;3.55;;;;;;;26.68;45.92;102182.38;5103962;27;20019;-77
2023/06/23 14:28:18;;;;;;;7.63;3.00;;;;;;;26.75;46.17;102179.19;5134501;27;20027;-78
2023/06/23 14:30:44;;;;;;;4.43;3.60;;;;;;;26.70;46.57;102180.09;5133616;27;20396;-75
2023/06/23 14:33:10;;;;;;;5.63;3.60;;;;;;;26.73;46.70;102178.69;5129866;27;20364;-76
2023/06/23 14:35:35;;;;;;;6.78;3.95;;;;;;;26.69;44.91;102179.28;5131559;27;20435;-76
2023/06/23 14:38:05;;;;;;;5.60;3.78;;;;;;;26.77;45.37;102182.47;5131923;27;20042;-78
2023/06/23 14:40:33;;;;;;;6.45;3.30;;;;;;;26.85;45.53;102181.81;5133402;27;20054;-75
2023/06/23 14:43:00;;;;;;;4.80;3.50;;;;;;;26.97;46.59;102178.53;5132360;27;20023;-76
2023/06/23 14:45:36;;;;;;;4.68;3.95;;;;;;;26.92;46.31;102182.25;5131693;27;20283;-74
2023/06/23 14:48:02;;;;;;;4.28;3.72;;;;;;;26.98;46.23;102180.19;5134278;27;20075;-75
2023/06/23 14:50:28;;;;;;;5.85;3.47;;;;;;;27.02;44.95;102176.47;5133834;27;20404;-74
2023/06/23 14:52:54;;;;;;;5.05;3.67;;;;;;;27.09;44.64;102183.63;5131732;27;20079;-74
2023/06/23 14:55:19;;;;;;;7.75;3.55;;;;;;;27.12;45.06;102180.22;5133773;27;20057;-74
2023/06/23 14:57:45;;;;;;;4.18;2.95;;;;;;;27.24;45.74;102189.72;5135796;27;20027;-75
2023/06/23 15:00:11;;;;;;;5.57;3.50;;;;;;;27.18;43.54;102190.13;5133041;27;20031;-75
2023/06/23 15:02:36;;;;;;;5.28;3.67;;;;;;;27.16;43.57;102187.66;5133156;27;20019;-75
2023/06/23 15:05:04;;;;;;;5.25;3.80;;;;;;;27.09;44.21;102183.63;5134833;27;20023;-75
2023/06/23 15:07:31;;;;;;;3.63;3.33;;;;;;;27.08;44.70;102185.56;5132396;27;20029;-75
2023/06/23 15:10:02;;;;;;;5.60;3.50;;;;;;;27.13;44.66;102191.03;5132425;27;20027;-76
2023/06/23 15:12:35;;;;;;;7.78;3.72;;;;;;;27.00;44.32;102175.97;5135495;27;20377;-79
2023/06/23 15:15:02;;;;;;;4.07;2.92;;;;;;;27.09;45.48;102183.63;5137133;27;20103;-74
2023/06/23 15:17:27;;;;;;;5.53;3.40;;;;;;;27.25;45.49;102179.41;5130631;27;20049;-73
2023/06/23 15:19:52;;;;;;;5.28;3.60;;;;;;;27.38;44.63;102188.94;5147482;27;20019;-72
2023/06/23 15:22:19;;;;;;;4.03;3.50;;;;;;;27.45;43.02;102194.06;5132947;27;20034;-74
2023/06/23 15:24:45;;;;;;;5.30;3.20;;;;;;;27.51;44.16;102187.31;5135860;27;20015;-74
2023/06/23 15:27:11;;;;;;;4.22;2.90;;;;;;;27.19;43.11;102183.41;5129010;27;20023;-74
2023/06/23 15:29:36;;;;;;;4.28;3.08;;;;;;;27.14;44.26;102189.06;5132137;27;20022;-74
2023/06/23 15:32:02;;;;;;;3.58;2.75;;;;;;;27.00;44.16;102189.88;5131719;27;20161;-74
2023/06/23 15:34:29;;;;;;;3.50;3.20;;;;;;;26.96;43.33;102186.03;5131628;27;20092;-73
2023/06/23 15:36:56;;;;;;;3.78;3.10;;;;;;;27.11;45.00;102189.69;5132855;27;20110;-74
2023/06/23 15:39:22;;;;;;;4.72;3.10;;;;;;;27.21;44.97;102195.06;5131248;27;20109;-74
2023/06/23 15:41:49;;;;;;;5.88;3.15;;;;;;;27.18;43.55;102190.13;5130743;27;20403;-74
2023/06/23 15:44:16;;;;;;;4.05;3.28;;;;;;;27.09;42.83;102191.97;5132789;27;20027;-74
2023/06/23 15:46:45;;;;;;;5.20;2.85;;;;;;;27.10;43.95;102193.59;5132854;27;20023;-73
2023/06/23 15:49:11;;;;;;;3.10;2.85;;;;;;;27.16;42.20;102192.34;5131649;27;20080;-75
2023/06/23 15:51:40;;;;;;;3.58;2.90;;;;;;;27.27;42.92;102193.84;5132967;27;20023;-72
2023/06/23 15:54:06;;;;;;;4.53;2.63;;;;;;;27.31;41.98;102197.66;5134014;27;20023;-71
2023/06/23 15:56:32;;;;;;;4.53;2.30;;;;;;;27.36;42.08;102194.00;5128645;27;20066;-72
2023/06/23 15:58:57;;;;;;;5.97;2.90;;;;;;;27.53;41.72;102193.38;5132840;27;20459;-72
2023/06/23 16:01:23;;;;;;;3.40;2.50;;;;;;;27.70;43.59;102195.53;5130034;27;20035;-71
2023/06/23 16:03:48;;;;;;;3.38;3.00;;;;;;;27.91;40.89;102184.81;5131251;27;20031;-70
2023/06/23 16:06:14;;;;;;;3.80;3.00;;;;;;;27.68;41.02;102193.06;5132970;27;20027;-67
